sensor_id;sensor_type;location;lat;lon;timestamp;P1;durP1;ratioP1;P2;durP2;ratioP2
1136;SDS011;557;48.466;7.950;2023-04-06T00:02:33;7.60;;;7.00;;
1136;SDS011;557;48.466;7.950;2023-04-06T00:05:21;8.30;;;7.50;;
1136;SDS011;557;48.466;7.950;2023-04-06T00:08:08;7.53;;;6.90;;
1136;SDS011;557;48.466;7.950;2023-04-06T00:10:56;8.67;;;7.97;;
1136;SDS011;557;48.466;7.950;2023-04-06T00:13:45;7.53;;;6.93;;
1136;SDS011;557;48.466;7.950;2023-04-06T00:16:32;7.97;;;7.27;;
1136;SDS011;557;48.466;7.950;2023-04-06T00:19:20;7.90;;;7.13;;
1136;SDS011;557;48.466;7.950;2023-04-06T00:22:07;8.00;;;7.30;;
1136;SDS011;557;48.466;7.950;2023-04-06T00:24:55;8.50;;;7.83;;
1136;SDS011;557;48.466;7.950;2023-04-06T00:27:42;8.33;;;7.53;;
1136;SDS011;557;48.466;7.950;2023-04-06T00:30:31;7.60;;;7.00;;
1136;SDS011;557;48.466;7.950;2023-04-06T00:33:18;8.03;;;7.33;;
1136;SDS011;557;48.466;7.950;2023-04-06T00:36:06;8.07;;;7.40;;
1136;SDS011;557;48.466;7.950;2023-04-06T00:38:53;8.63;;;7.63;;
1136;SDS011;557;48.466;7.950;2023-04-06T00:41:42;8.50;;;7.77;;
1136;SDS011;557;48.466;7.950;2023-04-06T00:44:34;7.90;;;7.30;;
1136;SDS011;557;48.466;7.950;2023-04-06T00:47:23;8.53;;;7.83;;
1136;SDS011;557;48.466;7.950;2023-04-06T00:50:11;9.33;;;8.00;;
1136;SDS011;557;48.466;7.950;2023-04-06T00:52:59;8.17;;;7.53;;
1136;SDS011;557;48.466;7.950;2023-04-06T00:55:46;8.90;;;8.07;;
1136;SDS011;557;48.466;7.950;2023-04-06T00:58:34;8.17;;;7.40;;
1136;SDS011;557;48.466;7.950;2023-04-06T01:01:23;7.40;;;6.83;;
1136;SDS011;557;48.466;7.950;2023-04-06T01:04:12;8.07;;;7.37;;
1136;SDS011;557;48.466;7.950;2023-04-06T01:06:59;8.17;;;7.10;;
1136;SDS011;557;48.466;7.950;2023-04-06T01:09:47;9.33;;;7.87;;
1136;SDS011;557;48.466;7.950;2023-04-06T01:12:34;8.70;;;7.90;;
1136;SDS011;557;48.466;7.950;2023-04-06T01:15:22;8.87;;;8.17;;
1136;SDS011;557;48.466;7.950;2023-04-06T01:18:11;8.40;;;7.70;;
1136;SDS011;557;48.466;7.950;2023-04-06T01:20:59;7.63;;;7.03;;
1136;SDS011;557;48.466;7.950;2023-04-06T01:23:48;7.73;;;7.10;;
1136;SDS011;557;48.466;7.950;2023-04-06T01:26:36;8.03;;;7.20;;
1136;SDS011;557;48.466;7.950;2023-04-06T01:29:24;7.60;;;7.10;;
1136;SDS011;557;48.466;7.950;2023-04-06T01:32:12;7.90;;;7.23;;
1136;SDS011;557;48.466;7.950;2023-04-06T01:34:59;7.43;;;6.83;;
1136;SDS011;557;48.466;7.950;2023-04-06T01:37:46;9.03;;;8.17;;
1136;SDS011;557;48.466;7.950;2023-04-06T01:40:35;8.73;;;8.03;;
1136;SDS011;557;48.466;7.950;2023-04-06T01:43:23;8.23;;;7.53;;
1136;SDS011;557;48.466;7.950;2023-04-06T01:46:10;8.50;;;7.80;;
1136;SDS011;557;48.466;7.950;2023-04-06T01:48:57;8.37;;;7.60;;
1136;SDS011;557;48.466;7.950;2023-04-06T01:51:45;8.10;;;7.30;;
1136;SDS011;557;48.466;7.950;2023-04-06T01:54:33;8.10;;;7.37;;
1136;SDS011;557;48.466;7.950;2023-04-06T01:57:21;7.63;;;6.93;;
1136;SDS011;557;48.466;7.950;2023-04-06T02:00:09;8.03;;;7.33;;
1136;SDS011;557;48.466;7.950;2023-04-06T02:02:57;7.70;;;7.00;;
1136;SDS011;557;48.466;7.950;2023-04-06T02:05:45;8.33;;;7.63;;
1136;SDS011;557;48.466;7.950;2023-04-06T02:08:32;7.80;;;7.27;;
1136;SDS011;557;48.466;7.950;2023-04-06T02:11:20;9.63;;;8.03;;
1136;SDS011;557;48.466;7.950;2023-04-06T02:14:08;8.40;;;7.20;;
1136;SDS011;557;48.466;7.950;2023-04-06T02:16:56;8.27;;;7.40;;
1136;SDS011;557;48.466;7.950;2023-04-06T02:19:43;8.50;;;7.70;;
1136;SDS011;557;48.466;7.950;2023-04-06T02:22:30;8.17;;;7.47;;
1136;SDS011;557;48.466;7.950;2023-04-06T02:25:18;7.57;;;6.97;;
1136;SDS011;557;48.466;7.950;2023-04-06T02:28:05;7.57;;;6.87;;
1136;SDS011;557;48.466;7.950;2023-04-06T02:30:54;10.07;;;8.07;;
1136;SDS011;557;48.466;7.950;2023-04-06T02:33:41;7.70;;;7.10;;
1136;SDS011;557;48.466;7.950;2023-04-06T02:36:29;7.80;;;7.20;;
1136;SDS011;557;48.466;7.950;2023-04-06T02:39:16;7.67;;;7.07;;
1136;SDS011;557;48.466;7.950;2023-04-06T02:42:04;8.07;;;7.27;;
1136;SDS011;557;48.466;7.950;2023-04-06T02:44:51;7.70;;;7.07;;
1136;SDS011;557;48.466;7.950;2023-04-06T02:47:40;9.07;;;8.27;;
1136;SDS011;557;48.466;7.950;2023-04-06T02:50:28;7.80;;;7.20;;
1136;SDS011;557;48.466;7.950;2023-04-06T02:53:15;7.33;;;6.73;;
1136;SDS011;557;48.466;7.950;2023-04-06T02:56:03;7.63;;;6.93;;
1136;SDS011;557;48.466;7.950;2023-04-06T02:58:50;7.40;;;6.80;;
1136;SDS011;557;48.466;7.950;2023-04-06T03:01:38;7.67;;;6.93;;
1136;SDS011;557;48.466;7.950;2023-04-06T03:04:26;7.80;;;7.00;;
1136;SDS011;557;48.466;7.950;2023-04-06T03:07:14;7.70;;;7.10;;
1136;SDS011;557;48.466;7.950;2023-04-06T03:10:01;8.57;;;7.63;;
1136;SDS011;557;48.466;7.950;2023-04-06T03:12:49;9.60;;;7.30;;
1136;SDS011;557;48.466;7.950;2023-04-06T03:15:36;7.60;;;7.00;;
1136;SDS011;557;48.466;7.950;2023-04-06T03:18:24;7.90;;;7.23;;
1136;SDS011;557;48.466;7.950;2023-04-06T03:21:13;12.43;;;7.40;;
1136;SDS011;557;48.466;7.950;2023-04-06T03:24:01;8.50;;;7.20;;
1136;SDS011;557;48.466;7.950;2023-04-06T03:26:49;7.70;;;7.00;;
1136;SDS011;557;48.466;7.950;2023-04-06T03:29:36;8.67;;;7.90;;
1136;SDS011;557;48.466;7.950;2023-04-06T03:32:24;7.70;;;7.10;;
1136;SDS011;557;48.466;7.950;2023-04-06T03:35:11;8.57;;;7.77;;
1136;SDS011;557;48.466;7.950;2023-04-06T03:38:00;8.37;;;7.50;;
1136;SDS011;557;48.466;7.950;2023-04-06T03:40:47;7.97;;;7.27;;
1136;SDS011;557;48.466;7.950;2023-04-06T03:43:35;8.80;;;7.90;;
1136;SDS011;557;48.466;7.950;2023-04-06T03:46:22;7.77;;;7.07;;
1136;SDS011;557;48.466;7.950;2023-04-06T03:49:10;8.50;;;7.70;;
1136;SDS011;557;48.466;7.950;2023-04-06T03:51:57;8.37;;;7.40;;
1136;SDS011;557;48.466;7.950;2023-04-06T03:54:46;7.83;;;7.20;;
1136;SDS011;557;48.466;7.950;2023-04-06T03:57:33;8.80;;;7.37;;
1136;SDS011;557;48.466;7.950;2023-04-06T04:00:21;8.47;;;7.73;;
1136;SDS011;557;48.466;7.950;2023-04-06T04:03:08;8.80;;;8.03;;
1136;SDS011;557;48.466;7.950;2023-04-06T04:05:56;8.27;;;7.57;;
1136;SDS011;557;48.466;7.950;2023-04-06T04:08:43;7.87;;;7.17;;
1136;SDS011;557;48.466;7.950;2023-04-06T04:11:32;9.00;;;8.10;;
1136;SDS011;557;48.466;7.950;2023-04-06T04:14:19;8.03;;;7.27;;
1136;SDS011;557;48.466;7.950;2023-04-06T04:17:07;8.10;;;7.37;;
1136;SDS011;557;48.466;7.950;2023-04-06T04:19:54;9.87;;;7.20;;
1136;SDS011;557;48.466;7.950;2023-04-06T04:22:41;8.23;;;7.43;;
1136;SDS011;557;48.466;7.950;2023-04-06T04:25:29;8.80;;;8.00;;
1136;SDS011;557;48.466;7.950;2023-04-06T04:28:18;8.20;;;7.10;;
1136;SDS011;557;48.466;7.950;2023-04-06T04:31:05;8.27;;;7.47;;
1136;SDS011;557;48.466;7.950;2023-04-06T04:33:53;8.10;;;7.40;;
1136;SDS011;557;48.466;7.950;2023-04-06T04:36:40;7.80;;;7.10;;
1136;SDS011;557;48.466;7.950;2023-04-06T04:39:28;8.27;;;7.57;;
1136;SDS011;557;48.466;7.950;2023-04-06T04:42:15;8.53;;;7.73;;
1136;SDS011;557;48.466;7.950;2023-04-06T04:45:04;8.87;;;7.90;;
1136;SDS011;557;48.466;7.950;2023-04-06T04:47:52;6.93;;;6.33;;
1136;SDS011;557;48.466;7.950;2023-04-06T04:50:40;8.87;;;7.60;;
1136;SDS011;557;48.466;7.950;2023-04-06T04:53:27;8.63;;;7.07;;
1136;SDS011;557;48.466;7.950;2023-04-06T04:56:15;8.27;;;7.50;;
1136;SDS011;557;48.466;7.950;2023-04-06T04:59:02;8.50;;;7.80;;
1136;SDS011;557;48.466;7.950;2023-04-06T05:01:51;8.43;;;7.73;;
1136;SDS011;557;48.466;7.950;2023-04-06T05:04:38;11.13;;;9.97;;
1136;SDS011;557;48.466;7.950;2023-04-06T05:07:26;17.17;;;13.43;;
1136;SDS011;557;48.466;7.950;2023-04-06T05:10:13;10.13;;;8.80;;
1136;SDS011;557;48.466;7.950;2023-04-06T05:13:01;8.73;;;7.10;;
1136;SDS011;557;48.466;7.950;2023-04-06T05:15:48;8.20;;;7.03;;
1136;SDS011;557;48.466;7.950;2023-04-06T05:18:37;7.50;;;6.70;;
1136;SDS011;557;48.466;7.950;2023-04-06T05:21:24;8.50;;;7.70;;
1136;SDS011;557;48.466;7.950;2023-04-06T05:24:13;7.53;;;6.83;;
1136;SDS011;557;48.466;7.950;2023-04-06T05:27:01;7.53;;;6.80;;
1136;SDS011;557;48.466;7.950;2023-04-06T05:29:49;9.13;;;8.03;;
1136;SDS011;557;48.466;7.950;2023-04-06T05:32:36;10.70;;;9.70;;
1136;SDS011;557;48.466;7.950;2023-04-06T05:35:27;7.70;;;7.00;;
1136;SDS011;557;48.466;7.950;2023-04-06T05:38:14;7.77;;;7.07;;
1136;SDS011;557;48.466;7.950;2023-04-06T05:41:02;8.27;;;7.43;;
1136;SDS011;557;48.466;7.950;2023-04-06T05:43:49;10.03;;;8.23;;
1136;SDS011;557;48.466;7.950;2023-04-06T05:46:37;10.10;;;7.17;;
1136;SDS011;557;48.466;7.950;2023-04-06T05:49:24;13.30;;;7.57;;
1136;SDS011;557;48.466;7.950;2023-04-06T05:52:13;8.90;;;8.00;;
1136;SDS011;557;48.466;7.950;2023-04-06T05:55:00;7.93;;;7.23;;
1136;SDS011;557;48.466;7.950;2023-04-06T05:57:48;8.63;;;7.80;;
1136;SDS011;557;48.466;7.950;2023-04-06T06:00:37;8.30;;;7.50;;
1136;SDS011;557;48.466;7.950;2023-04-06T06:03:24;8.77;;;7.97;;
1136;SDS011;557;48.466;7.950;2023-04-06T06:06:11;7.80;;;7.10;;
1136;SDS011;557;48.466;7.950;2023-04-06T06:09:00;9.40;;;8.50;;
1136;SDS011;557;48.466;7.950;2023-04-06T06:11:48;8.10;;;7.30;;
1136;SDS011;557;48.466;7.950;2023-04-06T06:14:36;9.40;;;8.53;;
1136;SDS011;557;48.466;7.950;2023-04-06T06:17:24;7.87;;;7.20;;
1136;SDS011;557;48.466;7.950;2023-04-06T06:20:11;8.50;;;7.70;;
1136;SDS011;557;48.466;7.950;2023-04-06T06:22:59;8.80;;;8.00;;
1136;SDS011;557;48.466;7.950;2023-04-06T06:25:48;11.20;;;7.93;;
1136;SDS011;557;48.466;7.950;2023-04-06T06:28:35;11.43;;;8.57;;
1136;SDS011;557;48.466;7.950;2023-04-06T06:31:23;9.43;;;7.27;;
1136;SDS011;557;48.466;7.950;2023-04-06T06:34:10;8.10;;;7.50;;
1136;SDS011;557;48.466;7.950;2023-04-06T06:36:59;9.47;;;8.60;;
1136;SDS011;557;48.466;7.950;2023-04-06T06:39:47;8.30;;;7.50;;
1136;SDS011;557;48.466;7.950;2023-04-06T06:42:36;8.30;;;7.60;;
1136;SDS011;557;48.466;7.950;2023-04-06T06:45:23;8.80;;;8.00;;
1136;SDS011;557;48.466;7.950;2023-04-06T06:48:11;9.37;;;8.40;;
1136;SDS011;557;48.466;7.950;2023-04-06T06:50:58;10.63;;;8.93;;
1136;SDS011;557;48.466;7.950;2023-04-06T06:53:46;9.37;;;8.53;;
1136;SDS011;557;48.466;7.950;2023-04-06T06:56:34;9.47;;;8.70;;
1136;SDS011;557;48.466;7.950;2023-04-06T06:59:24;11.47;;;8.97;;
1136;SDS011;557;48.466;7.950;2023-04-06T07:02:12;9.90;;;9.13;;
1136;SDS011;557;48.466;7.950;2023-04-06T07:05:01;11.00;;;10.00;;
1136;SDS011;557;48.466;7.950;2023-04-06T07:07:49;10.30;;;8.97;;
1136;SDS011;557;48.466;7.950;2023-04-06T07:10:36;10.00;;;9.13;;
1136;SDS011;557;48.466;7.950;2023-04-06T07:13:24;10.03;;;9.00;;
1136;SDS011;557;48.466;7.950;2023-04-06T07:16:14;10.47;;;9.57;;
1136;SDS011;557;48.466;7.950;2023-04-06T07:19:01;10.90;;;10.10;;
1136;SDS011;557;48.466;7.950;2023-04-06T07:21:49;9.20;;;8.60;;
1136;SDS011;557;48.466;7.950;2023-04-06T07:24:36;10.00;;;9.10;;
1136;SDS011;557;48.466;7.950;2023-04-06T07:27:24;10.90;;;10.10;;
1136;SDS011;557;48.466;7.950;2023-04-06T07:30:11;10.37;;;9.57;;
1136;SDS011;557;48.466;7.950;2023-04-06T07:33:00;10.03;;;9.23;;
1136;SDS011;557;48.466;7.950;2023-04-06T07:35:48;11.37;;;10.37;;
1136;SDS011;557;48.466;7.950;2023-04-06T07:38:36;9.57;;;8.87;;
1136;SDS011;557;48.466;7.950;2023-04-06T07:41:23;10.03;;;9.30;;
1136;SDS011;557;48.466;7.950;2023-04-06T07:44:11;11.10;;;10.30;;
1136;SDS011;557;48.466;7.950;2023-04-06T07:46:58;10.67;;;9.80;;
1136;SDS011;557;48.466;7.950;2023-04-06T07:49:47;10.30;;;9.53;;
1136;SDS011;557;48.466;7.950;2023-04-06T07:52:34;10.93;;;10.13;;
1136;SDS011;557;48.466;7.950;2023-04-06T07:55:22;11.77;;;10.97;;
1136;SDS011;557;48.466;7.950;2023-04-06T07:58:09;12.00;;;10.83;;
1136;SDS011;557;48.466;7.950;2023-04-06T08:00:56;11.83;;;10.83;;
1136;SDS011;557;48.466;7.950;2023-04-06T08:03:44;11.23;;;10.20;;
1136;SDS011;557;48.466;7.950;2023-04-06T08:06:33;11.90;;;11.00;;
1136;SDS011;557;48.466;7.950;2023-04-06T08:09:21;12.33;;;11.30;;
1136;SDS011;557;48.466;7.950;2023-04-06T08:12:09;11.50;;;10.60;;
1136;SDS011;557;48.466;7.950;2023-04-06T08:14:56;13.07;;;11.90;;
1136;SDS011;557;48.466;7.950;2023-04-06T08:17:45;12.67;;;11.67;;
1136;SDS011;557;48.466;7.950;2023-04-06T08:20:32;12.57;;;11.67;;
1136;SDS011;557;48.466;7.950;2023-04-06T08:23:21;12.37;;;11.63;;
1136;SDS011;557;48.466;7.950;2023-04-06T08:26:08;14.50;;;13.10;;
1136;SDS011;557;48.466;7.950;2023-04-06T08:28:56;12.70;;;11.80;;
1136;SDS011;557;48.466;7.950;2023-04-06T08:31:43;12.87;;;12.00;;
1136;SDS011;557;48.466;7.950;2023-04-06T08:34:31;12.60;;;11.73;;
1136;SDS011;557;48.466;7.950;2023-04-06T08:37:19;13.37;;;12.47;;
1136;SDS011;557;48.466;7.950;2023-04-06T08:40:08;13.27;;;12.37;;
1136;SDS011;557;48.466;7.950;2023-04-06T08:42:56;13.53;;;12.63;;
1136;SDS011;557;48.466;7.950;2023-04-06T08:45:49;13.37;;;12.47;;
1136;SDS011;557;48.466;7.950;2023-04-06T08:48:37;14.53;;;13.53;;
1136;SDS011;557;48.466;7.950;2023-04-06T08:51:26;13.40;;;12.60;;
1136;SDS011;557;48.466;7.950;2023-04-06T08:54:14;14.47;;;13.30;;
1136;SDS011;557;48.466;7.950;2023-04-06T08:57:03;14.50;;;13.50;;
1136;SDS011;557;48.466;7.950;2023-04-06T08:59:51;15.00;;;13.73;;
1136;SDS011;557;48.466;7.950;2023-04-06T09:02:42;14.83;;;13.73;;
1136;SDS011;557;48.466;7.950;2023-04-06T09:05:31;15.30;;;14.20;;
1136;SDS011;557;48.466;7.950;2023-04-06T09:08:19;15.43;;;14.13;;
1136;SDS011;557;48.466;7.950;2023-04-06T09:11:07;15.07;;;13.97;;
1136;SDS011;557;48.466;7.950;2023-04-06T09:13:56;15.43;;;14.23;;
1136;SDS011;557;48.466;7.950;2023-04-06T09:16:44;15.50;;;14.20;;
1136;SDS011;557;48.466;7.950;2023-04-06T09:19:33;14.20;;;13.10;;
1136;SDS011;557;48.466;7.950;2023-04-06T09:22:20;15.73;;;14.63;;
1136;SDS011;557;48.466;7.950;2023-04-06T09:25:08;15.50;;;14.30;;
1136;SDS011;557;48.466;7.950;2023-04-06T09:28:00;14.13;;;13.07;;
1136;SDS011;557;48.466;7.950;2023-04-06T09:30:49;15.73;;;14.40;;
1136;SDS011;557;48.466;7.950;2023-04-06T09:33:37;15.63;;;14.40;;
1136;SDS011;557;48.466;7.950;2023-04-06T09:36:34;15.20;;;14.10;;
1136;SDS011;557;48.466;7.950;2023-04-06T09:39:23;15.20;;;14.20;;
1136;SDS011;557;48.466;7.950;2023-04-06T09:42:22;15.73;;;14.50;;
1136;SDS011;557;48.466;7.950;2023-04-06T09:45:11;16.23;;;15.00;;
1136;SDS011;557;48.466;7.950;2023-04-06T09:48:00;15.43;;;14.43;;
1136;SDS011;557;48.466;7.950;2023-04-06T09:50:49;16.23;;;15.13;;
1136;SDS011;557;48.466;7.950;2023-04-06T09:53:41;16.70;;;15.50;;
1136;SDS011;557;48.466;7.950;2023-04-06T09:56:33;16.90;;;15.70;;
1136;SDS011;557;48.466;7.950;2023-04-06T09:59:28;17.20;;;15.90;;
1136;SDS011;557;48.466;7.950;2023-04-06T10:02:25;16.20;;;15.30;;
1136;SDS011;557;48.466;7.950;2023-04-06T10:05:22;16.13;;;15.00;;
1136;SDS011;557;48.466;7.950;2023-04-06T10:08:17;16.70;;;15.20;;
1136;SDS011;557;48.466;7.950;2023-04-06T10:11:08;17.40;;;16.00;;
1136;SDS011;557;48.466;7.950;2023-04-06T10:13:56;16.60;;;15.67;;
1136;SDS011;557;48.466;7.950;2023-04-06T10:16:44;17.67;;;16.17;;
1136;SDS011;557;48.466;7.950;2023-04-06T10:19:38;18.53;;;17.03;;
1136;SDS011;557;48.466;7.950;2023-04-06T10:22:34;18.23;;;16.90;;
1136;SDS011;557;48.466;7.950;2023-04-06T10:25:28;16.60;;;15.50;;
1136;SDS011;557;48.466;7.950;2023-04-06T10:28:16;17.83;;;16.63;;
1136;SDS011;557;48.466;7.950;2023-04-06T10:31:06;17.07;;;15.97;;
1136;SDS011;557;48.466;7.950;2023-04-06T10:33:54;17.10;;;15.90;;
1136;SDS011;557;48.466;7.950;2023-04-06T10:36:42;17.27;;;16.20;;
1136;SDS011;557;48.466;7.950;2023-04-06T10:39:31;16.43;;;15.47;;
1136;SDS011;557;48.466;7.950;2023-04-06T10:42:23;16.20;;;15.20;;
1136;SDS011;557;48.466;7.950;2023-04-06T10:45:18;15.40;;;14.40;;
1136;SDS011;557;48.466;7.950;2023-04-06T10:48:12;15.43;;;14.37;;
1136;SDS011;557;48.466;7.950;2023-04-06T10:51:00;15.00;;;13.90;;
1136;SDS011;557;48.466;7.950;2023-04-06T10:53:48;15.93;;;14.73;;
1136;SDS011;557;48.466;7.950;2023-04-06T10:56:37;14.60;;;13.80;;
1136;SDS011;557;48.466;7.950;2023-04-06T10:59:25;15.70;;;14.60;;
1136;SDS011;557;48.466;7.950;2023-04-06T11:02:19;15.47;;;14.37;;
1136;SDS011;557;48.466;7.950;2023-04-06T11:05:08;16.00;;;14.90;;
1136;SDS011;557;48.466;7.950;2023-04-06T11:07:58;16.70;;;15.60;;
1136;SDS011;557;48.466;7.950;2023-04-06T11:10:45;17.10;;;15.90;;
1136;SDS011;557;48.466;7.950;2023-04-06T11:13:40;17.30;;;16.10;;
1136;SDS011;557;48.466;7.950;2023-04-06T11:16:29;17.10;;;15.90;;
1136;SDS011;557;48.466;7.950;2023-04-06T11:19:17;17.17;;;16.03;;
1136;SDS011;557;48.466;7.950;2023-04-06T11:22:06;17.60;;;16.40;;
1136;SDS011;557;48.466;7.950;2023-04-06T11:25:04;18.13;;;16.83;;
1136;SDS011;557;48.466;7.950;2023-04-06T11:27:52;17.90;;;16.70;;
1136;SDS011;557;48.466;7.950;2023-04-06T11:30:42;18.70;;;17.20;;
1136;SDS011;557;48.466;7.950;2023-04-06T11:33:34;17.80;;;16.40;;
1136;SDS011;557;48.466;7.950;2023-04-06T11:36:22;17.20;;;16.07;;
1136;SDS011;557;48.466;7.950;2023-04-06T11:39:13;18.00;;;16.53;;
1136;SDS011;557;48.466;7.950;2023-04-06T11:42:05;17.20;;;15.97;;
1136;SDS011;557;48.466;7.950;2023-04-06T11:44:53;17.30;;;16.10;;
1136;SDS011;557;48.466;7.950;2023-04-06T11:47:43;17.70;;;16.40;;
1136;SDS011;557;48.466;7.950;2023-04-06T11:50:31;17.23;;;16.03;;
1136;SDS011;557;48.466;7.950;2023-04-06T11:53:20;17.13;;;16.07;;
1136;SDS011;557;48.466;7.950;2023-04-06T11:56:07;16.93;;;15.83;;
1136;SDS011;557;48.466;7.950;2023-04-06T11:58:55;17.83;;;16.27;;
1136;SDS011;557;48.466;7.950;2023-04-06T12:01:44;18.63;;;17.20;;
1136;SDS011;557;48.466;7.950;2023-04-06T12:04:33;17.80;;;16.60;;
1136;SDS011;557;48.466;7.950;2023-04-06T12:07:21;17.97;;;16.80;;
1136;SDS011;557;48.466;7.950;2023-04-06T12:10:08;17.60;;;16.37;;
1136;SDS011;557;48.466;7.950;2023-04-06T12:12:56;17.23;;;16.03;;
1136;SDS011;557;48.466;7.950;2023-04-06T12:15:44;18.37;;;16.97;;
1136;SDS011;557;48.466;7.950;2023-04-06T12:18:31;18.83;;;17.43;;
1136;SDS011;557;48.466;7.950;2023-04-06T12:21:20;17.47;;;16.40;;
1136;SDS011;557;48.466;7.950;2023-04-06T12:24:07;17.40;;;16.30;;
1136;SDS011;557;48.466;7.950;2023-04-06T12:26:55;17.50;;;16.30;;
1136;SDS011;557;48.466;7.950;2023-04-06T12:29:43;17.77;;;16.57;;
1136;SDS011;557;48.466;7.950;2023-04-06T12:32:30;17.57;;;16.50;;
1136;SDS011;557;48.466;7.950;2023-04-06T12:35:18;17.60;;;16.50;;
1136;SDS011;557;48.466;7.950;2023-04-06T12:38:07;17.83;;;16.63;;
1136;SDS011;557;48.466;7.950;2023-04-06T12:40:55;18.30;;;17.03;;
1136;SDS011;557;48.466;7.950;2023-04-06T12:43:43;17.67;;;16.47;;
1136;SDS011;557;48.466;7.950;2023-04-06T12:46:31;17.57;;;16.37;;
1136;SDS011;557;48.466;7.950;2023-04-06T12:49:19;17.47;;;16.27;;
1136;SDS011;557;48.466;7.950;2023-04-06T12:52:07;18.40;;;16.80;;
1136;SDS011;557;48.466;7.950;2023-04-06T12:54:56;18.03;;;16.63;;
1136;SDS011;557;48.466;7.950;2023-04-06T12:57:44;17.43;;;16.20;;
1136;SDS011;557;48.466;7.950;2023-04-06T13:00:32;17.73;;;16.53;;
1136;SDS011;557;48.466;7.950;2023-04-06T13:03:19;17.80;;;16.60;;
1136;SDS011;557;48.466;7.950;2023-04-06T13:06:07;17.87;;;16.60;;
1136;SDS011;557;48.466;7.950;2023-04-06T13:08:55;17.53;;;16.27;;
1136;SDS011;557;48.466;7.950;2023-04-06T13:11:44;17.13;;;16.13;;
1136;SDS011;557;48.466;7.950;2023-04-06T13:14:32;17.80;;;16.43;;
1136;SDS011;557;48.466;7.950;2023-04-06T13:17:20;18.00;;;16.70;;
1136;SDS011;557;48.466;7.950;2023-04-06T13:20:08;18.10;;;16.90;;
1136;SDS011;557;48.466;7.950;2023-04-06T13:22:56;17.63;;;16.43;;
1136;SDS011;557;48.466;7.950;2023-04-06T13:25:43;17.70;;;16.60;;
1136;SDS011;557;48.466;7.950;2023-04-06T13:28:33;17.03;;;16.03;;
1136;SDS011;557;48.466;7.950;2023-04-06T13:31:22;17.50;;;16.33;;
1136;SDS011;557;48.466;7.950;2023-04-06T13:34:10;17.63;;;16.43;;
1136;SDS011;557;48.466;7.950;2023-04-06T13:36:57;17.17;;;16.17;;
1136;SDS011;557;48.466;7.950;2023-04-06T13:39:45;18.10;;;16.93;;
1136;SDS011;557;48.466;7.950;2023-04-06T13:42:32;17.47;;;16.37;;
1136;SDS011;557;48.466;7.950;2023-04-06T13:45:22;18.00;;;16.90;;
1136;SDS011;557;48.466;7.950;2023-04-06T13:48:09;17.43;;;16.27;;
1136;SDS011;557;48.466;7.950;2023-04-06T13:50:57;17.23;;;16.13;;
1136;SDS011;557;48.466;7.950;2023-04-06T13:53:44;17.30;;;16.30;;
1136;SDS011;557;48.466;7.950;2023-04-06T13:56:32;17.00;;;15.70;;
1136;SDS011;557;48.466;7.950;2023-04-06T13:59:19;19.43;;;18.13;;
1136;SDS011;557;48.466;7.950;2023-04-06T14:02:08;17.00;;;16.00;;
1136;SDS011;557;48.466;7.950;2023-04-06T14:04:56;17.90;;;16.60;;
1136;SDS011;557;48.466;7.950;2023-04-06T14:07:43;18.57;;;17.27;;
1136;SDS011;557;48.466;7.950;2023-04-06T14:10:31;17.90;;;16.60;;
1136;SDS011;557;48.466;7.950;2023-04-06T14:13:23;18.00;;;16.70;;
1136;SDS011;557;48.466;7.950;2023-04-06T14:16:10;16.60;;;15.60;;
1136;SDS011;557;48.466;7.950;2023-04-06T14:18:59;17.57;;;16.30;;
1136;SDS011;557;48.466;7.950;2023-04-06T14:21:46;17.90;;;16.60;;
1136;SDS011;557;48.466;7.950;2023-04-06T14:24:34;18.80;;;17.47;;
1136;SDS011;557;48.466;7.950;2023-04-06T14:27:22;18.27;;;17.10;;
1136;SDS011;557;48.466;7.950;2023-04-06T14:30:10;18.37;;;16.87;;
1136;SDS011;557;48.466;7.950;2023-04-06T14:32:58;17.80;;;16.80;;
1136;SDS011;557;48.466;7.950;2023-04-06T14:35:47;18.23;;;16.70;;
1136;SDS011;557;48.466;7.950;2023-04-06T14:38:34;18.47;;;17.07;;
1136;SDS011;557;48.466;7.950;2023-04-06T14:41:22;17.70;;;16.40;;
1136;SDS011;557;48.466;7.950;2023-04-06T14:44:10;17.90;;;16.60;;
1136;SDS011;557;48.466;7.950;2023-04-06T14:46:58;17.10;;;15.80;;
1136;SDS011;557;48.466;7.950;2023-04-06T14:49:46;16.90;;;15.90;;
1136;SDS011;557;48.466;7.950;2023-04-06T14:52:35;17.53;;;16.03;;
1136;SDS011;557;48.466;7.950;2023-04-06T14:55:22;17.37;;;16.10;;
1136;SDS011;557;48.466;7.950;2023-04-06T14:58:10;16.23;;;15.20;;
1136;SDS011;557;48.466;7.950;2023-04-06T15:00:57;17.13;;;16.03;;
1136;SDS011;557;48.466;7.950;2023-04-06T15:03:46;16.77;;;15.67;;
1136;SDS011;557;48.466;7.950;2023-04-06T15:06:33;16.70;;;15.67;;
1136;SDS011;557;48.466;7.950;2023-04-06T15:09:22;16.40;;;15.40;;
1136;SDS011;557;48.466;7.950;2023-04-06T15:12:09;16.80;;;15.60;;
1136;SDS011;557;48.466;7.950;2023-04-06T15:14:56;16.63;;;15.47;;
1136;SDS011;557;48.466;7.950;2023-04-06T15:17:43;15.33;;;14.33;;
1136;SDS011;557;48.466;7.950;2023-04-06T15:20:31;16.97;;;15.57;;
1136;SDS011;557;48.466;7.950;2023-04-06T15:23:18;16.10;;;15.10;;
1136;SDS011;557;48.466;7.950;2023-04-06T15:26:07;14.60;;;13.80;;
1136;SDS011;557;48.466;7.950;2023-04-06T15:28:55;14.83;;;13.93;;
1136;SDS011;557;48.466;7.950;2023-04-06T15:31:42;14.53;;;13.63;;
1136;SDS011;557;48.466;7.950;2023-04-06T15:34:30;16.00;;;14.93;;
1136;SDS011;557;48.466;7.950;2023-04-06T15:37:19;14.67;;;13.80;;
1136;SDS011;557;48.466;7.950;2023-04-06T15:40:07;14.30;;;13.50;;
1136;SDS011;557;48.466;7.950;2023-04-06T15:43:00;15.17;;;14.17;;
1136;SDS011;557;48.466;7.950;2023-04-06T15:45:47;14.93;;;13.93;;
1136;SDS011;557;48.466;7.950;2023-04-06T15:48:34;15.47;;;14.50;;
1136;SDS011;557;48.466;7.950;2023-04-06T15:51:22;14.87;;;13.87;;
1136;SDS011;557;48.466;7.950;2023-04-06T15:54:10;14.47;;;13.67;;
1136;SDS011;557;48.466;7.950;2023-04-06T15:56:57;14.00;;;13.13;;
1136;SDS011;557;48.466;7.950;2023-04-06T15:59:47;14.50;;;13.70;;
1136;SDS011;557;48.466;7.950;2023-04-06T16:02:35;14.83;;;13.83;;
1136;SDS011;557;48.466;7.950;2023-04-06T16:05:22;15.00;;;14.10;;
1136;SDS011;557;48.466;7.950;2023-04-06T16:08:09;14.47;;;13.53;;
1136;SDS011;557;48.466;7.950;2023-04-06T16:10:58;14.40;;;13.57;;
1136;SDS011;557;48.466;7.950;2023-04-06T16:13:46;14.10;;;13.30;;
1136;SDS011;557;48.466;7.950;2023-04-06T16:16:34;15.80;;;14.60;;
1136;SDS011;557;48.466;7.950;2023-04-06T16:19:22;14.67;;;13.53;;
1136;SDS011;557;48.466;7.950;2023-04-06T16:22:09;15.20;;;14.20;;
1136;SDS011;557;48.466;7.950;2023-04-06T16:24:56;14.90;;;14.00;;
1136;SDS011;557;48.466;7.950;2023-04-06T16:27:43;14.00;;;13.20;;
1136;SDS011;557;48.466;7.950;2023-04-06T16:30:31;14.67;;;13.63;;
1136;SDS011;557;48.466;7.950;2023-04-06T16:33:23;14.23;;;13.30;;
1136;SDS011;557;48.466;7.950;2023-04-06T16:36:10;14.77;;;13.77;;
1136;SDS011;557;48.466;7.950;2023-04-06T16:38:58;14.20;;;13.30;;
1136;SDS011;557;48.466;7.950;2023-04-06T16:41:46;14.17;;;13.27;;
1136;SDS011;557;48.466;7.950;2023-04-06T16:44:34;13.67;;;12.87;;
1136;SDS011;557;48.466;7.950;2023-04-06T16:47:21;14.90;;;13.90;;
1136;SDS011;557;48.466;7.950;2023-04-06T16:50:10;15.53;;;14.40;;
1136;SDS011;557;48.466;7.950;2023-04-06T16:52:57;14.90;;;14.00;;
1136;SDS011;557;48.466;7.950;2023-04-06T16:55:44;15.10;;;14.17;;
1136;SDS011;557;48.466;7.950;2023-04-06T16:58:32;14.60;;;13.80;;
1136;SDS011;557;48.466;7.950;2023-04-06T17:01:20;15.67;;;14.47;;
1136;SDS011;557;48.466;7.950;2023-04-06T17:04:08;15.30;;;14.30;;
1136;SDS011;557;48.466;7.950;2023-04-06T17:06:57;15.20;;;14.10;;
1136;SDS011;557;48.466;7.950;2023-04-06T17:09:44;14.90;;;14.00;;
1136;SDS011;557;48.466;7.950;2023-04-06T17:12:31;14.80;;;13.90;;
1136;SDS011;557;48.466;7.950;2023-04-06T17:15:19;15.17;;;14.17;;
1136;SDS011;557;48.466;7.950;2023-04-06T17:18:09;14.20;;;13.33;;
1136;SDS011;557;48.466;7.950;2023-04-06T17:20:56;15.73;;;14.60;;
1136;SDS011;557;48.466;7.950;2023-04-06T17:23:45;14.27;;;13.17;;